• Join FlightAware (Why Join?)
  • Login
  • US Flag 
09:05AM EDT


 

Airport Tracker/Info


-or-


 

Live Flight TrackerFlight Track Log ✈ SWA3121 ✈ 05-May-2013 ✈ KTPA - KRDU

Flight Track Log - Related Links

Times and Time Zones

All times are in EDT time to prevent confusion due to time zone crossing. See the SWA3121 flight status page for this flight to view local times or setup timezone preferences in your user account.

Time Position Orientation Groundspeed Altitude Reporting Facility
EDT Latitude Longitude Course Direction KTS MPH feet Rate Location/Type
01:31PM 27.9833 -82.5333 360° North 142 163 700  Level Tampa TRACON
01:33PM 28.0500 -82.5333 360° North 209 241 3,800 2,760 Climbing Tampa TRACON
01:34PM 28.1850 -82.5369 359° North 286 329 9,300 2,940 Climbing Jacksonville Center
01:35PM 28.2767 -82.5461 355° North 297 342 12,000 3,300 Climbing Jacksonville Center
01:36PM 28.3769 -82.5575 354° North 335 386 15,900 3,600 Climbing Jacksonville Center
01:37PM 28.4792 -82.5689 354° North 351 404 19,200 3,180 Climbing Jacksonville Center
01:38PM 28.5919 -82.5806 355° North 374 430 22,300 2,760 Climbing Jacksonville Center
01:39PM 28.7025 -82.5919 355° North 391 450 24,800 2,340 Climbing Jacksonville Center
01:40PM 28.8194 -82.6106 352° North 405 466 27,000 2,160 Climbing Jacksonville Center
01:41PM 28.9406 -82.6269 353° North 418 481 29,200 1,800 Climbing Jacksonville Center
01:42PM 29.0639 -82.6456 352° North 432 497 30,600 1,680 Climbing Jacksonville Center
01:43PM 29.1911 -82.6619 354° North 449 517 32,600 1,680 Climbing Jacksonville Center
01:44PM 29.3122 -82.6783 353° North 449 517 34,000 660 Climbing Jacksonville Center
01:45PM 29.4397 -82.6922 355° North 449 517 34,000 360 Level Jacksonville Center
01:46PM 29.5544 -82.6969 358° North 449 517 34,800 1,260 Climbing Jacksonville Center
01:47PM 29.6817 -82.6656 12° North 456 525 36,600 1,500 Climbing Jacksonville Center
01:48PM 29.8236 -82.6125 18° North 461 531 37,900 1,080 Climbing Jacksonville Center
01:49PM 29.9508 -82.5642 18° North 472 543 38,800 960 Climbing Jacksonville Center
01:50PM 30.0678 -82.5253 16° North 478 550 39,900 1,080 Climbing Jacksonville Center
01:51PM 30.1947 -82.4769 18° North 478 550 41,000 540 Climbing Jacksonville Center
01:52PM 30.3242 -82.4306 17° North 478 550 41,000  Level Jacksonville Center
01:53PM 30.4533 -82.3817 18° North 478 550 41,000  Level Jacksonville Center
01:54PM 30.5806 -82.3328 18° North 478 550 41,000  Level Jacksonville Center
01:55PM 30.7078 -82.2886 17° North 478 550 41,000  Level Jacksonville Center
01:56PM 30.8306 -82.2394 19° North 478 550 41,000  Level Jacksonville Center
01:57PM 30.9600 -82.1925 17° North 478 550 41,000  Level Jacksonville Center
01:58PM 31.0933 -82.1406 18° North 467 537 41,000  Level Jacksonville Center
01:59PM 31.2161 -82.0958 17° North 467 537 41,000  Level Jacksonville Center
02:00PM 31.3431 -82.0461 18° North 467 537 41,000  Level Jacksonville Center
02:01PM 31.4661 -81.9961 19° North 462 532 41,000  Level Jacksonville Center
02:02PM 31.5806 -81.9561 17° North 462 532 41,000  Level Jacksonville Center
02:03PM 31.7181 -81.9008 19° North 462 532 41,000  Level Jacksonville Center
02:04PM 31.8325 -81.8581 18° North 468 539 41,000  Level Jacksonville Center
02:05PM 31.9697 -81.8028 19° North 468 539 41,000  Level Jacksonville Center
02:06PM 32.0947 -81.7547 18° North 468 539 41,000  Level Jacksonville Center
02:07PM 32.2069 -81.7117 18° North 468 539 41,000  Level Jacksonville Center
02:08PM 32.3442 -81.6581 18° North 468 539 41,000  Level Jacksonville Center
02:09PM 32.4711 -81.6097 18° North 473 544 41,000  Level Jacksonville Center
02:10PM 32.5856 -81.5661 18° North 473 544 41,000  Level Jacksonville Center
02:11PM 32.7144 -81.5122 19° North 480 552 41,000  Level Jacksonville Center
02:12PM 32.8392 -81.4636 18° North 480 552 41,000  Level Jacksonville Center
02:13PM 32.9678 -81.4144 18° North 480 552 41,000  Level Jacksonville Center
02:14PM 33.0967 -81.3628 19° North 480 552 41,000  Level Jacksonville Center
02:15PM 33.2256 -81.3133 18° North 480 552 41,000  Level Jacksonville Center
02:16PM 33.3542 -81.2614 19° North 480 552 41,000  Level Jacksonville Center
02:17PM 33.4831 -81.2092 19° North 480 552 41,000  Level Jacksonville Center
02:18PM 33.6031 -81.1394 26° Northeast 480 552 41,000  Level Jacksonville Center
02:19PM 33.7122 -81.0400 37° Northeast 480 552 41,000  Level Jacksonville Center
02:20PM 33.8192 -80.9453 36° Northeast 480 552 41,000  Level Jacksonville Center
02:21PM 33.9264 -80.8478 37° Northeast 480 552 41,000  Level Jacksonville Center
02:22PM 34.0331 -80.7525 37° Northeast 480 552 41,000 -900 Level Jacksonville Center
02:23PM 34.1381 -80.6572 37° Northeast 474 545 39,300 -2,100 Descending Jacksonville Center
02:24PM 34.2406 -80.5617 38° Northeast 474 545 36,800 -2,760 Descending Jacksonville Center
02:25PM 34.3472 -80.4656 37° Northeast 474 545 33,800 -2,880 Descending Jacksonville Center
02:27PM 34.5278 -80.2958 38° Northeast 503 579 28,900 -2,700 Descending Washington Center
02:28PM 34.6336 -80.2036 36° Northeast 470 541 26,400 -2,460 Descending Washington Center
02:29PM 34.7311 -80.1081 39° Northeast 449 517 24,000 -2,040 Descending Washington Center
02:30PM 34.8242 -80.0194 38° Northeast 435 501 22,400 -1,320 Descending Washington Center
02:31PM 34.9089 -79.9278 42° Northeast 420 483 21,400 -1,020 Descending Washington Center
02:32PM 34.9917 -79.8336 43° Northeast 409 471 20,400 -1,020 Descending Washington Center
02:33PM 35.0761 -79.7439 41° Northeast 404 465 19,400 -1,320 Descending Washington Center
02:34PM 35.1564 -79.6542 42° Northeast 399 459 17,900 -1,920 Descending Washington Center
02:35PM 35.2192 -79.5911 39° Northeast 394 453 16,200 -2,400 Descending Washington Center
02:35PM 35.2492 -79.5647 36° Northeast 392 451 15,500 -2,220 Descending Washington Center
02:36PM 35.3303 -79.5078 30° Northeast 377 434 13,600 -1,800 Descending Washington Center
02:37PM 35.4286 -79.4411 29° Northeast 358 412 11,900 -1,440 Descending Washington Center
02:38PM 35.4883 -79.4031 27° Northeast 307 353 10,900 -1,380 Descending Washington Center
02:39PM 35.5428 -79.3242 50° Northeast 290 334 9,400 -1,440 Descending Washington Center
02:40PM 35.5892 -79.2419 55° Northeast 289 333 8,000 -1,440 Descending Washington Center
02:41PM 35.6292 -79.1619 58° Northeast 277 319 6,500 -1,620 Descending Washington Center
02:42PM 35.6714 -79.0794 58° Northeast 274 315 4,600 -1,500 Descending Washington Center
02:43PM 35.7047 -79.0042 61° Northeast 250 288 3,500 -960 Descending Washington Center
02:44PM 35.7439 -78.9469 50° Northeast 239 275 2,800 -600 Descending Washington Center
02:45PM 35.7828 -78.8975 46° Northeast 180 207 2,300 -480 Descending Washington Center
02:46PM 35.8131 -78.8628 43° Northeast 109 125 1,900 -540 Descending Washington Center
02:47PM 35.8347 -78.8331 48° Northeast 119 137 1,200 -780 Descending Washington Center
02:48PM 35.8583 -78.8058 43° Northeast 130 150 500 -780 Descending Washington Center
02:50PM 35.8667 -78.7833 51° Northeast  Level FlightAware Approximate
02:57PM 35.8776 -78.7875 51° Northeast  Level Estimated
02:58PM 35.8776 -78.7875 51° Northeast  Level Estimated
02:59PM 35.8776 -78.7875 51° Northeast  Level Estimated
03:00PM 35.8776 -78.7875 51° Northeast  Level Estimated
03:01PM 35.8776 -78.7875 51° Northeast  Level Estimated
03:02PM 35.8776 -78.7875 51° Northeast  Level Estimated